Aérodrome :
LOGIN :

S'inscrire | Disclaimer

   EN    FR    IT 

 










Légende :    VFR   VFR Marginal   IFR   IFR Intensif   IFR Très Intensif
Visi : 
Plafond : 
>= 8 km
>= 3000ft
5 à 8 km
1000 à 3000 ft
1500m à 5 km
500 à 1000 ft
800 à 1500m
200 à 500 ft
< 800m
< 200 ft
Symboles :   Orages  Brouillard  Fortes neiges  Fortes précipitations  Vent > 20 kt
SIGMETs :   Divers  Orages  Givrage  Turbulence  Onde Orograph.  Cendres Volcan.






- Altitude de l'aérodrome : 1197 ft
- Code IATA : SPM


ETAD - Spangdahlem Ab

DERNIER METAR :
  • 151355Z AUTO 09005KT 9999 CLR 27/13 A2982 RMK AO2 SLP084 T02710131 $

METARs EXPIRÉS :
  • 151255Z AUTO 11006KT 9999 FEW190 27/13 A2984 RMK AO2 SLP091 T02650125 $
  • 151155Z AUTO 14004KT 9999 CLR 26/12 A2985 RMK AO2 SLP094 T02560121 10256 20130 57015
  • 151055Z AUTO 13003KT 9999 CLR 24/12 A2987 RMK AO2 SLP101 T02420122 $
  • 150955Z AUTO 19005KT 9999 CLR 23/12 A2989 RMK AO2 SLP108 T02280118 $

TAF TAF ETAD
Valide du 15 à 12h jusqu'au 16 à 18h UTC


151200Z 1512/1618 14009KT 9999 FEW080 QNH2983INS
BECMG 1517/1518 15010G15KT 9000 -SHRA SCT025 BKN060 QNH2981INS
TEMPO 1518/1519 8000 VCTS BKN030CB
BECMG 1522/1523 21012G20KT 9999 NSW BKN025 QNH2984INS
BECMG 1610/1611 22015G30KT 9000 -SHRA SCT030 BKN040 QNH2994INS
BECMG 1614/1615 24015G30KT 9999 NSW SCT040 BKN060 QNH2996INS TX25/1514Z TN14/1605Z



MET'MAP, la Météo Aéronautique d'un coup d'oeil ! - Copyright ORBIFLY Décembre 2007 - Disclaimer

ORBIFLY MET'MAP TEAM :

Programmation & Développement : Alexandra Zaïnal
Sur une idée originale de : Baudouin d'Aumeries
Soutien technique & logistique : Manuel Goepfert
Assistance : Marc-Olivier Méhu




SOURCES & CREDITS :

   NOAA